sensor_id;sensor_type;location;lat;lon;timestamp;P1;durP1;ratioP1;P2;durP2;ratioP2
47259;SDS011;32999;52.412;4.890;2022-10-15T00:01:41;37.97;;;23.17;;
47259;SDS011;32999;52.412;4.890;2022-10-15T00:06:43;37.22;;;23.48;;
47259;SDS011;32999;52.412;4.890;2022-10-15T00:11:46;41.25;;;22.75;;
47259;SDS011;32999;52.412;4.890;2022-10-15T00:16:48;47.47;;;24.55;;
47259;SDS011;32999;52.412;4.890;2022-10-15T00:21:49;41.38;;;25.70;;
47259;SDS011;32999;52.412;4.890;2022-10-15T00:26:54;45.53;;;24.17;;
47259;SDS011;32999;52.412;4.890;2022-10-15T00:31:59;42.40;;;26.38;;
47259;SDS011;32999;52.412;4.890;2022-10-15T00:37:01;48.95;;;27.33;;
47259;SDS011;32999;52.412;4.890;2022-10-15T00:42:04;49.55;;;28.00;;
47259;SDS011;32999;52.412;4.890;2022-10-15T00:47:08;56.80;;;28.52;;
47259;SDS011;32999;52.412;4.890;2022-10-15T00:52:15;48.55;;;28.42;;
47259;SDS011;32999;52.412;4.890;2022-10-15T00:57:21;51.28;;;29.30;;
47259;SDS011;32999;52.412;4.890;2022-10-15T01:02:24;56.10;;;30.40;;
47259;SDS011;32999;52.412;4.890;2022-10-15T01:07:26;53.30;;;30.67;;
47259;SDS011;32999;52.412;4.890;2022-10-15T01:12:35;53.58;;;29.98;;
47259;SDS011;32999;52.412;4.890;2022-10-15T01:17:45;56.72;;;30.63;;
47259;SDS011;32999;52.412;4.890;2022-10-15T01:22:53;55.67;;;32.47;;
47259;SDS011;32999;52.412;4.890;2022-10-15T01:28:14;52.10;;;31.20;;
47259;SDS011;32999;52.412;4.890;2022-10-15T01:33:27;63.35;;;32.95;;
47259;SDS011;32999;52.412;4.890;2022-10-15T01:38:40;60.92;;;32.75;;
47259;SDS011;32999;52.412;4.890;2022-10-15T01:43:50;64.28;;;31.90;;
47259;SDS011;32999;52.412;4.890;2022-10-15T01:49:00;59.85;;;34.28;;
47259;SDS011;32999;52.412;4.890;2022-10-15T01:54:04;53.85;;;31.73;;
47259;SDS011;32999;52.412;4.890;2022-10-15T01:59:10;52.60;;;34.80;;
47259;SDS011;32999;52.412;4.890;2022-10-15T02:04:19;57.10;;;34.63;;
47259;SDS011;32999;52.412;4.890;2022-10-15T02:09:24;62.40;;;35.35;;
47259;SDS011;32999;52.412;4.890;2022-10-15T02:14:33;64.32;;;35.53;;
47259;SDS011;32999;52.412;4.890;2022-10-15T02:19:41;70.70;;;38.22;;
47259;SDS011;32999;52.412;4.890;2022-10-15T02:24:50;69.22;;;38.42;;
47259;SDS011;32999;52.412;4.890;2022-10-15T02:29:56;63.10;;;36.40;;
47259;SDS011;32999;52.412;4.890;2022-10-15T02:40:37;72.55;;;38.65;;
47259;SDS011;32999;52.412;4.890;2022-10-15T02:45:43;70.20;;;39.88;;
47259;SDS011;32999;52.412;4.890;2022-10-15T02:50:50;66.60;;;40.45;;
47259;SDS011;32999;52.412;4.890;2022-10-15T02:55:51;77.65;;;43.05;;
47259;SDS011;32999;52.412;4.890;2022-10-15T03:00:56;77.57;;;43.83;;
47259;SDS011;32999;52.412;4.890;2022-10-15T03:06:11;79.53;;;44.60;;
47259;SDS011;32999;52.412;4.890;2022-10-15T03:11:13;71.25;;;40.75;;
47259;SDS011;32999;52.412;4.890;2022-10-15T03:16:20;75.30;;;42.58;;
47259;SDS011;32999;52.412;4.890;2022-10-15T03:21:24;71.50;;;41.72;;
47259;SDS011;32999;52.412;4.890;2022-10-15T03:26:31;88.22;;;46.47;;
47259;SDS011;32999;52.412;4.890;2022-10-15T03:31:33;79.55;;;43.55;;
47259;SDS011;32999;52.412;4.890;2022-10-15T03:36:36;88.80;;;47.22;;
47259;SDS011;32999;52.412;4.890;2022-10-15T03:41:38;84.40;;;45.35;;
47259;SDS011;32999;52.412;4.890;2022-10-15T03:46:40;91.72;;;48.65;;
47259;SDS011;32999;52.412;4.890;2022-10-15T03:51:44;90.97;;;47.90;;
47259;SDS011;32999;52.412;4.890;2022-10-15T03:56:46;85.47;;;46.83;;
47259;SDS011;32999;52.412;4.890;2022-10-15T04:01:47;74.00;;;45.30;;
47259;SDS011;32999;52.412;4.890;2022-10-15T04:06:50;89.82;;;48.08;;
47259;SDS011;32999;52.412;4.890;2022-10-15T04:11:52;85.32;;;45.83;;
47259;SDS011;32999;52.412;4.890;2022-10-15T04:16:54;91.97;;;50.45;;
47259;SDS011;32999;52.412;4.890;2022-10-15T04:22:03;91.45;;;47.83;;
47259;SDS011;32999;52.412;4.890;2022-10-15T04:27:13;82.60;;;46.17;;
47259;SDS011;32999;52.412;4.890;2022-10-15T04:32:14;81.50;;;44.92;;
47259;SDS011;32999;52.412;4.890;2022-10-15T04:37:19;84.82;;;48.53;;
47259;SDS011;32999;52.412;4.890;2022-10-15T04:42:20;78.18;;;45.80;;
47259;SDS011;32999;52.412;4.890;2022-10-15T04:47:22;82.55;;;45.20;;
47259;SDS011;32999;52.412;4.890;2022-10-15T04:52:26;90.82;;;49.28;;
47259;SDS011;32999;52.412;4.890;2022-10-15T04:57:28;82.97;;;48.17;;
47259;SDS011;32999;52.412;4.890;2022-10-15T05:02:29;87.38;;;49.13;;
47259;SDS011;32999;52.412;4.890;2022-10-15T05:07:34;90.05;;;51.47;;
47259;SDS011;32999;52.412;4.890;2022-10-15T05:12:35;94.07;;;50.70;;
47259;SDS011;32999;52.412;4.890;2022-10-15T05:17:37;105.22;;;52.78;;
47259;SDS011;32999;52.412;4.890;2022-10-15T05:22:40;94.60;;;50.13;;
47259;SDS011;32999;52.412;4.890;2022-10-15T05:27:42;84.43;;;51.17;;
47259;SDS011;32999;52.412;4.890;2022-10-15T05:32:44;86.18;;;51.45;;
47259;SDS011;32999;52.412;4.890;2022-10-15T05:37:47;97.40;;;52.63;;
47259;SDS011;32999;52.412;4.890;2022-10-15T05:42:49;87.97;;;51.58;;
47259;SDS011;32999;52.412;4.890;2022-10-15T05:47:52;102.50;;;54.90;;
47259;SDS011;32999;52.412;4.890;2022-10-15T05:52:56;82.65;;;50.95;;
47259;SDS011;32999;52.412;4.890;2022-10-15T05:57:59;84.72;;;50.97;;
47259;SDS011;32999;52.412;4.890;2022-10-15T06:03:02;93.25;;;52.20;;
47259;SDS011;32999;52.412;4.890;2022-10-15T06:08:05;83.25;;;52.63;;
47259;SDS011;32999;52.412;4.890;2022-10-15T06:13:07;87.43;;;53.67;;
47259;SDS011;32999;52.412;4.890;2022-10-15T06:18:09;93.65;;;54.88;;
47259;SDS011;32999;52.412;4.890;2022-10-15T06:23:12;108.30;;;59.10;;
47259;SDS011;32999;52.412;4.890;2022-10-15T06:28:14;102.10;;;56.70;;
47259;SDS011;32999;52.412;4.890;2022-10-15T06:33:16;114.47;;;59.88;;
47259;SDS011;32999;52.412;4.890;2022-10-15T06:38:19;117.85;;;59.10;;
47259;SDS011;32999;52.412;4.890;2022-10-15T06:43:21;115.50;;;57.95;;
47259;SDS011;32999;52.412;4.890;2022-10-15T06:48:22;118.47;;;59.30;;
47259;SDS011;32999;52.412;4.890;2022-10-15T06:53:25;128.52;;;59.53;;
47259;SDS011;32999;52.412;4.890;2022-10-15T06:58:27;133.77;;;58.17;;
47259;SDS011;32999;52.412;4.890;2022-10-15T07:03:29;112.93;;;55.10;;
47259;SDS011;32999;52.412;4.890;2022-10-15T07:08:33;121.43;;;57.67;;
47259;SDS011;32999;52.412;4.890;2022-10-15T07:13:35;133.85;;;58.55;;
47259;SDS011;32999;52.412;4.890;2022-10-15T07:18:37;113.45;;;54.17;;
47259;SDS011;32999;52.412;4.890;2022-10-15T07:23:41;108.28;;;52.85;;
47259;SDS011;32999;52.412;4.890;2022-10-15T07:28:43;104.97;;;48.83;;
47259;SDS011;32999;52.412;4.890;2022-10-15T07:33:44;86.63;;;45.08;;
47259;SDS011;32999;52.412;4.890;2022-10-15T07:38:48;74.03;;;40.60;;
47259;SDS011;32999;52.412;4.890;2022-10-15T07:43:50;71.15;;;37.50;;
47259;SDS011;32999;52.412;4.890;2022-10-15T07:48:52;57.75;;;36.33;;
47259;SDS011;32999;52.412;4.890;2022-10-15T07:53:55;60.50;;;35.38;;
47259;SDS011;32999;52.412;4.890;2022-10-15T07:58:57;63.58;;;36.28;;
47259;SDS011;32999;52.412;4.890;2022-10-15T08:03:59;68.80;;;36.72;;
47259;SDS011;32999;52.412;4.890;2022-10-15T08:09:02;74.65;;;37.45;;
47259;SDS011;32999;52.412;4.890;2022-10-15T08:14:04;72.88;;;40.22;;
47259;SDS011;32999;52.412;4.890;2022-10-15T08:19:06;84.75;;;41.38;;
47259;SDS011;32999;52.412;4.890;2022-10-15T08:24:09;78.30;;;41.33;;
47259;SDS011;32999;52.412;4.890;2022-10-15T08:29:11;78.63;;;40.80;;
47259;SDS011;32999;52.412;4.890;2022-10-15T08:34:13;74.53;;;38.42;;
47259;SDS011;32999;52.412;4.890;2022-10-15T08:39:16;85.95;;;41.35;;
47259;SDS011;32999;52.412;4.890;2022-10-15T08:44:19;83.88;;;39.97;;
47259;SDS011;32999;52.412;4.890;2022-10-15T08:49:27;79.28;;;38.58;;
47259;SDS011;32999;52.412;4.890;2022-10-15T08:54:41;66.15;;;34.97;;
47259;SDS011;32999;52.412;4.890;2022-10-15T08:59:45;65.78;;;34.85;;
47259;SDS011;32999;52.412;4.890;2022-10-15T09:04:57;54.65;;;32.45;;
47259;SDS011;32999;52.412;4.890;2022-10-15T09:10:09;52.78;;;32.30;;
47259;SDS011;32999;52.412;4.890;2022-10-15T09:15:17;44.13;;;28.10;;
47259;SDS011;32999;52.412;4.890;2022-10-15T09:25:29;35.03;;;22.97;;
47259;SDS011;32999;52.412;4.890;2022-10-15T09:30:35;34.13;;;23.83;;
47259;SDS011;32999;52.412;4.890;2022-10-15T09:35:50;32.60;;;21.88;;
47259;SDS011;32999;52.412;4.890;2022-10-15T09:41:02;29.20;;;22.00;;
47259;SDS011;32999;52.412;4.890;2022-10-15T09:46:15;28.88;;;21.65;;
47259;SDS011;32999;52.412;4.890;2022-10-15T09:51:18;30.95;;;21.40;;
47259;SDS011;32999;52.412;4.890;2022-10-15T09:56:27;28.40;;;20.33;;
47259;SDS011;32999;52.412;4.890;2022-10-15T10:01:32;25.02;;;18.33;;
47259;SDS011;32999;52.412;4.890;2022-10-15T10:06:35;23.73;;;18.85;;
47259;SDS011;32999;52.412;4.890;2022-10-15T10:11:49;27.25;;;20.90;;
47259;SDS011;32999;52.412;4.890;2022-10-15T10:17:03;28.35;;;21.38;;
47259;SDS011;32999;52.412;4.890;2022-10-15T10:22:15;26.75;;;22.02;;
47259;SDS011;32999;52.412;4.890;2022-10-15T10:27:21;28.67;;;22.53;;
47259;SDS011;32999;52.412;4.890;2022-10-15T10:32:25;29.02;;;20.98;;
47259;SDS011;32999;52.412;4.890;2022-10-15T10:37:28;37.25;;;22.67;;
47259;SDS011;32999;52.412;4.890;2022-10-15T10:42:43;37.75;;;22.73;;
47259;SDS011;32999;52.412;4.890;2022-10-15T10:47:45;31.63;;;20.90;;
47259;SDS011;32999;52.412;4.890;2022-10-15T10:52:47;34.25;;;21.52;;
47259;SDS011;32999;52.412;4.890;2022-10-15T10:57:51;30.55;;;20.98;;
47259;SDS011;32999;52.412;4.890;2022-10-15T11:02:55;36.50;;;23.08;;
47259;SDS011;32999;52.412;4.890;2022-10-15T11:07:59;33.22;;;19.52;;
47259;SDS011;32999;52.412;4.890;2022-10-15T11:13:16;30.73;;;18.60;;
47259;SDS011;32999;52.412;4.890;2022-10-15T11:18:42;20.88;;;15.27;;
47259;SDS011;32999;52.412;4.890;2022-10-15T11:29:14;20.30;;;13.35;;
47259;SDS011;32999;52.412;4.890;2022-10-15T11:34:27;13.80;;;10.23;;
47259;SDS011;32999;52.412;4.890;2022-10-15T11:39:41;11.35;;;8.55;;
47259;SDS011;32999;52.412;4.890;2022-10-15T11:45:10;9.68;;;7.00;;
47259;SDS011;32999;52.412;4.890;2022-10-15T11:50:27;10.65;;;6.75;;
47259;SDS011;32999;52.412;4.890;2022-10-15T11:55:34;9.65;;;7.03;;
47259;SDS011;32999;52.412;4.890;2022-10-15T12:00:44;7.93;;;6.55;;
47259;SDS011;32999;52.412;4.890;2022-10-15T12:05:51;9.52;;;7.80;;
47259;SDS011;32999;52.412;4.890;2022-10-15T12:16:20;6.65;;;5.22;;
47259;SDS011;32999;52.412;4.890;2022-10-15T12:21:34;7.43;;;6.60;;
47259;SDS011;32999;52.412;4.890;2022-10-15T12:26:38;8.23;;;6.68;;
47259;SDS011;32999;52.412;4.890;2022-10-15T12:31:45;9.18;;;6.78;;
47259;SDS011;32999;52.412;4.890;2022-10-15T12:36:56;13.07;;;7.75;;
47259;SDS011;32999;52.412;4.890;2022-10-15T12:42:00;9.10;;;7.35;;
47259;SDS011;32999;52.412;4.890;2022-10-15T12:47:03;12.13;;;8.02;;
47259;SDS011;32999;52.412;4.890;2022-10-15T13:08:43;7.00;;;5.07;;
47259;SDS011;32999;52.412;4.890;2022-10-15T13:13:47;5.53;;;4.95;;
47259;SDS011;32999;52.412;4.890;2022-10-15T13:18:52;4.75;;;4.25;;
47259;SDS011;32999;52.412;4.890;2022-10-15T13:23:57;4.82;;;4.35;;
47259;SDS011;32999;52.412;4.890;2022-10-15T13:28:59;5.90;;;5.30;;
47259;SDS011;32999;52.412;4.890;2022-10-15T13:34:02;5.68;;;4.10;;
47259;SDS011;32999;52.412;4.890;2022-10-15T13:39:22;8.80;;;7.45;;
47259;SDS011;32999;52.412;4.890;2022-10-15T13:44:28;7.05;;;6.30;;
47259;SDS011;32999;52.412;4.890;2022-10-15T13:49:30;12.30;;;6.43;;
47259;SDS011;32999;52.412;4.890;2022-10-15T13:54:33;8.02;;;4.90;;
47259;SDS011;32999;52.412;4.890;2022-10-15T13:59:35;7.35;;;3.45;;
47259;SDS011;32999;52.412;4.890;2022-10-15T14:04:37;6.60;;;2.22;;
47259;SDS011;32999;52.412;4.890;2022-10-15T14:09:41;4.20;;;2.03;;
47259;SDS011;32999;52.412;4.890;2022-10-15T14:14:44;8.95;;;2.42;;
47259;SDS011;32999;52.412;4.890;2022-10-15T14:19:49;8.95;;;1.58;;
47259;SDS011;32999;52.412;4.890;2022-10-15T14:24:54;7.13;;;1.50;;
47259;SDS011;32999;52.412;4.890;2022-10-15T14:29:57;6.25;;;1.90;;
47259;SDS011;32999;52.412;4.890;2022-10-15T14:35:00;7.35;;;1.95;;
47259;SDS011;32999;52.412;4.890;2022-10-15T14:40:13;10.60;;;1.98;;
47259;SDS011;32999;52.412;4.890;2022-10-15T14:45:23;10.38;;;1.60;;
47259;SDS011;32999;52.412;4.890;2022-10-15T14:50:26;15.93;;;1.88;;
47259;SDS011;32999;52.412;4.890;2022-10-15T14:55:33;8.95;;;1.45;;
47259;SDS011;32999;52.412;4.890;2022-10-15T15:00:38;9.65;;;1.77;;
47259;SDS011;32999;52.412;4.890;2022-10-15T15:05:42;8.57;;;1.35;;
47259;SDS011;32999;52.412;4.890;2022-10-15T15:10:47;8.52;;;2.03;;
47259;SDS011;32999;52.412;4.890;2022-10-15T15:15:51;6.88;;;1.80;;
47259;SDS011;32999;52.412;4.890;2022-10-15T15:20:53;10.18;;;2.40;;
47259;SDS011;32999;52.412;4.890;2022-10-15T15:26:01;9.27;;;1.33;;
47259;SDS011;32999;52.412;4.890;2022-10-15T15:31:04;5.13;;;1.80;;
47259;SDS011;32999;52.412;4.890;2022-10-15T15:36:09;6.00;;;1.70;;
47259;SDS011;32999;52.412;4.890;2022-10-15T15:41:15;7.38;;;2.15;;
47259;SDS011;32999;52.412;4.890;2022-10-15T15:46:18;11.07;;;2.40;;
47259;SDS011;32999;52.412;4.890;2022-10-15T15:51:20;11.40;;;3.22;;
47259;SDS011;32999;52.412;4.890;2022-10-15T15:56:26;8.38;;;2.42;;
47259;SDS011;32999;52.412;4.890;2022-10-15T16:01:28;9.10;;;1.73;;
47259;SDS011;32999;52.412;4.890;2022-10-15T16:06:29;8.50;;;1.65;;
47259;SDS011;32999;52.412;4.890;2022-10-15T16:11:33;3.58;;;1.35;;
47259;SDS011;32999;52.412;4.890;2022-10-15T16:16:34;5.38;;;1.45;;
47259;SDS011;32999;52.412;4.890;2022-10-15T16:21:36;7.55;;;1.33;;
47259;SDS011;32999;52.412;4.890;2022-10-15T16:26:40;6.38;;;1.50;;
47259;SDS011;32999;52.412;4.890;2022-10-15T16:31:41;5.78;;;0.98;;
47259;SDS011;32999;52.412;4.890;2022-10-15T16:36:43;6.95;;;1.20;;
47259;SDS011;32999;52.412;4.890;2022-10-15T16:41:46;6.63;;;1.50;;
47259;SDS011;32999;52.412;4.890;2022-10-15T16:46:48;5.13;;;1.30;;
47259;SDS011;32999;52.412;4.890;2022-10-15T16:51:49;7.28;;;1.50;;
47259;SDS011;32999;52.412;4.890;2022-10-15T16:56:53;11.05;;;2.83;;
47259;SDS011;32999;52.412;4.890;2022-10-15T17:01:54;8.18;;;1.52;;
47259;SDS011;32999;52.412;4.890;2022-10-15T17:06:56;8.77;;;1.67;;
47259;SDS011;32999;52.412;4.890;2022-10-15T17:11:59;6.25;;;1.10;;
47259;SDS011;32999;52.412;4.890;2022-10-15T17:17:01;5.20;;;1.25;;
47259;SDS011;32999;52.412;4.890;2022-10-15T17:22:02;6.78;;;1.40;;
47259;SDS011;32999;52.412;4.890;2022-10-15T17:27:05;8.10;;;2.72;;
47259;SDS011;32999;52.412;4.890;2022-10-15T17:32:07;10.23;;;2.50;;
47259;SDS011;32999;52.412;4.890;2022-10-15T17:37:09;11.32;;;1.85;;
47259;SDS011;32999;52.412;4.890;2022-10-15T17:42:12;12.52;;;2.00;;
47259;SDS011;32999;52.412;4.890;2022-10-15T17:47:15;8.75;;;1.92;;
47259;SDS011;32999;52.412;4.890;2022-10-15T17:52:16;8.73;;;1.63;;
47259;SDS011;32999;52.412;4.890;2022-10-15T17:57:19;15.30;;;2.53;;
47259;SDS011;32999;52.412;4.890;2022-10-15T18:02:21;12.95;;;2.50;;
47259;SDS011;32999;52.412;4.890;2022-10-15T18:07:22;16.77;;;3.47;;
47259;SDS011;32999;52.412;4.890;2022-10-15T18:12:25;12.63;;;2.83;;
47259;SDS011;32999;52.412;4.890;2022-10-15T18:17:27;11.80;;;2.65;;
47259;SDS011;32999;52.412;4.890;2022-10-15T18:22:29;7.60;;;1.98;;
47259;SDS011;32999;52.412;4.890;2022-10-15T18:27:34;13.02;;;1.80;;
47259;SDS011;32999;52.412;4.890;2022-10-15T18:32:36;13.93;;;2.47;;
47259;SDS011;32999;52.412;4.890;2022-10-15T18:37:37;10.25;;;2.10;;
47259;SDS011;32999;52.412;4.890;2022-10-15T18:42:40;8.30;;;1.67;;
47259;SDS011;32999;52.412;4.890;2022-10-15T18:47:42;9.30;;;2.03;;
47259;SDS011;32999;52.412;4.890;2022-10-15T18:52:44;4.80;;;1.27;;
47259;SDS011;32999;52.412;4.890;2022-10-15T18:57:47;5.63;;;0.98;;
47259;SDS011;32999;52.412;4.890;2022-10-15T19:02:49;6.70;;;1.23;;
47259;SDS011;32999;52.412;4.890;2022-10-15T19:07:55;5.78;;;1.75;;
47259;SDS011;32999;52.412;4.890;2022-10-15T19:12:59;7.95;;;1.83;;
47259;SDS011;32999;52.412;4.890;2022-10-15T19:18:00;11.32;;;3.75;;
47259;SDS011;32999;52.412;4.890;2022-10-15T19:23:04;12.45;;;2.33;;
47259;SDS011;32999;52.412;4.890;2022-10-15T19:28:08;11.25;;;1.70;;
47259;SDS011;32999;52.412;4.890;2022-10-15T19:33:09;9.25;;;1.67;;
47259;SDS011;32999;52.412;4.890;2022-10-15T19:38:11;7.10;;;1.80;;
47259;SDS011;32999;52.412;4.890;2022-10-15T19:43:14;7.90;;;2.03;;
47259;SDS011;32999;52.412;4.890;2022-10-15T19:53:21;8.47;;;1.40;;
47259;SDS011;32999;52.412;4.890;2022-10-15T19:58:25;10.30;;;1.73;;
47259;SDS011;32999;52.412;4.890;2022-10-15T20:03:27;6.75;;;1.63;;
47259;SDS011;32999;52.412;4.890;2022-10-15T20:08:30;10.60;;;1.75;;
47259;SDS011;32999;52.412;4.890;2022-10-15T20:13:33;7.25;;;1.60;;
47259;SDS011;32999;52.412;4.890;2022-10-15T20:18:35;5.57;;;2.07;;
47259;SDS011;32999;52.412;4.890;2022-10-15T20:23:37;9.60;;;1.80;;
47259;SDS011;32999;52.412;4.890;2022-10-15T20:28:42;8.18;;;1.38;;
47259;SDS011;32999;52.412;4.890;2022-10-15T20:33:45;14.40;;;2.08;;
47259;SDS011;32999;52.412;4.890;2022-10-15T20:38:47;6.85;;;1.50;;
47259;SDS011;32999;52.412;4.890;2022-10-15T20:43:52;6.75;;;1.40;;
47259;SDS011;32999;52.412;4.890;2022-10-15T20:48:55;6.28;;;1.42;;
47259;SDS011;32999;52.412;4.890;2022-10-15T20:53:59;7.80;;;1.73;;
47259;SDS011;32999;52.412;4.890;2022-10-15T20:59:02;7.07;;;1.42;;
47259;SDS011;32999;52.412;4.890;2022-10-15T21:04:04;8.40;;;1.45;;
47259;SDS011;32999;52.412;4.890;2022-10-15T21:09:05;6.85;;;1.40;;
47259;SDS011;32999;52.412;4.890;2022-10-15T21:14:09;10.85;;;1.63;;
47259;SDS011;32999;52.412;4.890;2022-10-15T21:19:11;9.00;;;1.33;;
47259;SDS011;32999;52.412;4.890;2022-10-15T21:24:14;7.57;;;1.10;;
47259;SDS011;32999;52.412;4.890;2022-10-15T21:29:21;5.38;;;1.20;;
47259;SDS011;32999;52.412;4.890;2022-10-15T21:34:24;10.10;;;1.27;;
47259;SDS011;32999;52.412;4.890;2022-10-15T21:39:26;12.23;;;1.75;;
47259;SDS011;32999;52.412;4.890;2022-10-15T21:44:30;8.75;;;1.38;;
47259;SDS011;32999;52.412;4.890;2022-10-15T21:49:32;8.80;;;1.50;;
47259;SDS011;32999;52.412;4.890;2022-10-15T21:54:34;7.35;;;1.38;;
47259;SDS011;32999;52.412;4.890;2022-10-15T21:59:37;5.93;;;1.52;;
47259;SDS011;32999;52.412;4.890;2022-10-15T22:04:39;8.00;;;1.27;;
47259;SDS011;32999;52.412;4.890;2022-10-15T22:09:40;10.40;;;1.48;;
47259;SDS011;32999;52.412;4.890;2022-10-15T22:14:44;8.10;;;1.70;;
47259;SDS011;32999;52.412;4.890;2022-10-15T22:19:47;10.07;;;1.80;;
47259;SDS011;32999;52.412;4.890;2022-10-15T22:24:50;9.63;;;1.57;;
47259;SDS011;32999;52.412;4.890;2022-10-15T22:29:53;9.10;;;1.10;;
47259;SDS011;32999;52.412;4.890;2022-10-15T22:34:55;6.63;;;1.10;;
47259;SDS011;32999;52.412;4.890;2022-10-15T22:39:56;4.82;;;1.02;;
47259;SDS011;32999;52.412;4.890;2022-10-15T22:45:00;5.63;;;1.10;;
47259;SDS011;32999;52.412;4.890;2022-10-15T22:50:05;8.15;;;1.73;;
47259;SDS011;32999;52.412;4.890;2022-10-15T22:55:08;3.65;;;1.00;;
47259;SDS011;32999;52.412;4.890;2022-10-15T23:00:23;7.35;;;1.50;;
47259;SDS011;32999;52.412;4.890;2022-10-15T23:05:25;6.47;;;1.00;;
47259;SDS011;32999;52.412;4.890;2022-10-15T23:10:26;3.85;;;0.88;;
47259;SDS011;32999;52.412;4.890;2022-10-15T23:15:29;6.38;;;1.17;;
47259;SDS011;32999;52.412;4.890;2022-10-15T23:20:31;5.20;;;1.00;;
47259;SDS011;32999;52.412;4.890;2022-10-15T23:25:36;5.68;;;0.98;;
47259;SDS011;32999;52.412;4.890;2022-10-15T23:30:39;6.63;;;1.55;;
47259;SDS011;32999;52.412;4.890;2022-10-15T23:35:41;6.57;;;1.67;;
47259;SDS011;32999;52.412;4.890;2022-10-15T23:40:43;2.45;;;0.80;;
47259;SDS011;32999;52.412;4.890;2022-10-15T23:45:46;4.72;;;1.15;;
47259;SDS011;32999;52.412;4.890;2022-10-15T23:50:47;4.28;;;1.23;;
47259;SDS011;32999;52.412;4.890;2022-10-15T23:55:49;4.78;;;1.00;;
